sensor_id;sensor_type;location;lat;lon;timestamp;P1;durP1;ratioP1;P2;durP2;ratioP2
23260;SDS011;11799;47.740;-3.390;2023-02-08T00:01:10;16.17;;;9.32;;
23260;SDS011;11799;47.740;-3.390;2023-02-08T00:03:37;14.60;;;9.43;;
23260;SDS011;11799;47.740;-3.390;2023-02-08T00:06:04;16.27;;;9.32;;
23260;SDS011;11799;47.740;-3.390;2023-02-08T00:08:30;17.23;;;9.35;;
23260;SDS011;11799;47.740;-3.390;2023-02-08T00:10:56;13.25;;;8.98;;
23260;SDS011;11799;47.740;-3.390;2023-02-08T00:13:22;15.32;;;9.65;;
23260;SDS011;11799;47.740;-3.390;2023-02-08T00:15:50;17.75;;;9.32;;
23260;SDS011;11799;47.740;-3.390;2023-02-08T00:18:17;17.08;;;9.35;;
23260;SDS011;11799;47.740;-3.390;2023-02-08T00:20:43;16.40;;;9.65;;
23260;SDS011;11799;47.740;-3.390;2023-02-08T00:23:09;17.60;;;9.27;;
23260;SDS011;11799;47.740;-3.390;2023-02-08T00:25:36;18.38;;;10.18;;
23260;SDS011;11799;47.740;-3.390;2023-02-08T00:28:02;15.48;;;9.48;;
23260;SDS011;11799;47.740;-3.390;2023-02-08T00:30:28;17.52;;;9.80;;
23260;SDS011;11799;47.740;-3.390;2023-02-08T00:32:53;14.40;;;9.48;;
23260;SDS011;11799;47.740;-3.390;2023-02-08T00:35:19;16.38;;;8.93;;
23260;SDS011;11799;47.740;-3.390;2023-02-08T00:37:45;16.00;;;9.52;;
23260;SDS011;11799;47.740;-3.390;2023-02-08T00:40:10;15.32;;;9.35;;
23260;SDS011;11799;47.740;-3.390;2023-02-08T00:42:36;15.63;;;9.43;;
23260;SDS011;11799;47.740;-3.390;2023-02-08T00:45:02;16.70;;;9.80;;
23260;SDS011;11799;47.740;-3.390;2023-02-08T00:47:28;16.40;;;9.80;;
23260;SDS011;11799;47.740;-3.390;2023-02-08T00:49:54;15.68;;;9.77;;
23260;SDS011;11799;47.740;-3.390;2023-02-08T00:52:20;16.88;;;9.52;;
23260;SDS011;11799;47.740;-3.390;2023-02-08T00:54:46;16.55;;;9.50;;
23260;SDS011;11799;47.740;-3.390;2023-02-08T00:57:12;12.38;;;8.57;;
23260;SDS011;11799;47.740;-3.390;2023-02-08T00:59:38;16.45;;;9.57;;
23260;SDS011;11799;47.740;-3.390;2023-02-08T01:02:04;15.90;;;9.95;;
23260;SDS011;11799;47.740;-3.390;2023-02-08T01:04:30;15.63;;;9.32;;
23260;SDS011;11799;47.740;-3.390;2023-02-08T01:06:56;13.52;;;9.02;;
23260;SDS011;11799;47.740;-3.390;2023-02-08T01:09:22;16.23;;;9.05;;
23260;SDS011;11799;47.740;-3.390;2023-02-08T01:11:48;17.98;;;9.63;;
23260;SDS011;11799;47.740;-3.390;2023-02-08T01:14:13;16.88;;;9.13;;
23260;SDS011;11799;47.740;-3.390;2023-02-08T01:16:39;14.73;;;9.30;;
23260;SDS011;11799;47.740;-3.390;2023-02-08T01:19:05;14.88;;;9.43;;
23260;SDS011;11799;47.740;-3.390;2023-02-08T01:21:34;14.10;;;9.43;;
23260;SDS011;11799;47.740;-3.390;2023-02-08T01:24:02;14.57;;;9.13;;
23260;SDS011;11799;47.740;-3.390;2023-02-08T01:26:28;16.90;;;9.77;;
23260;SDS011;11799;47.740;-3.390;2023-02-08T01:28:54;14.85;;;9.05;;
23260;SDS011;11799;47.740;-3.390;2023-02-08T01:31:22;15.25;;;8.98;;
23260;SDS011;11799;47.740;-3.390;2023-02-08T01:33:50;15.40;;;9.50;;
23260;SDS011;11799;47.740;-3.390;2023-02-08T01:36:16;14.75;;;9.32;;
23260;SDS011;11799;47.740;-3.390;2023-02-08T01:38:42;14.18;;;9.38;;
23260;SDS011;11799;47.740;-3.390;2023-02-08T01:41:17;15.70;;;9.23;;
23260;SDS011;11799;47.740;-3.390;2023-02-08T01:46:30;18.17;;;9.63;;
23260;SDS011;11799;47.740;-3.390;2023-02-08T01:48:58;15.75;;;9.50;;
23260;SDS011;11799;47.740;-3.390;2023-02-08T01:51:29;15.40;;;9.55;;
23260;SDS011;11799;47.740;-3.390;2023-02-08T01:53:59;15.30;;;9.43;;
23260;SDS011;11799;47.740;-3.390;2023-02-08T01:56:28;14.65;;;8.90;;
23260;SDS011;11799;47.740;-3.390;2023-02-08T01:59:02;16.75;;;9.40;;
23260;SDS011;11799;47.740;-3.390;2023-02-08T02:01:31;16.30;;;9.25;;
23260;SDS011;11799;47.740;-3.390;2023-02-08T02:04:03;15.65;;;9.07;;
23260;SDS011;11799;47.740;-3.390;2023-02-08T02:06:34;17.40;;;9.20;;
23260;SDS011;11799;47.740;-3.390;2023-02-08T02:11:47;16.70;;;9.40;;
23260;SDS011;11799;47.740;-3.390;2023-02-08T02:14:16;21.03;;;10.23;;
23260;SDS011;11799;47.740;-3.390;2023-02-08T02:16:44;18.52;;;9.43;;
23260;SDS011;11799;47.740;-3.390;2023-02-08T02:19:14;18.13;;;9.23;;
23260;SDS011;11799;47.740;-3.390;2023-02-08T02:33:17;14.25;;;9.07;;
23260;SDS011;11799;47.740;-3.390;2023-02-08T02:38:30;16.40;;;9.38;;
23260;SDS011;11799;47.740;-3.390;2023-02-08T02:43:31;15.05;;;9.13;;
23260;SDS011;11799;47.740;-3.390;2023-02-08T02:48:58;14.48;;;9.05;;
23260;SDS011;11799;47.740;-3.390;2023-02-08T02:51:26;19.65;;;10.00;;
23260;SDS011;11799;47.740;-3.390;2023-02-08T02:54:34;15.13;;;9.00;;
23260;SDS011;11799;47.740;-3.390;2023-02-08T02:57:14;16.15;;;9.43;;
23260;SDS011;11799;47.740;-3.390;2023-02-08T02:59:43;17.02;;;9.25;;
23260;SDS011;11799;47.740;-3.390;2023-02-08T03:02:11;15.38;;;9.20;;
23260;SDS011;11799;47.740;-3.390;2023-02-08T03:12:31;17.45;;;9.82;;
23260;SDS011;11799;47.740;-3.390;2023-02-08T03:17:55;17.98;;;9.52;;
23260;SDS011;11799;47.740;-3.390;2023-02-08T03:20:28;16.70;;;10.27;;
23260;SDS011;11799;47.740;-3.390;2023-02-08T03:23:08;14.60;;;8.63;;
23260;SDS011;11799;47.740;-3.390;2023-02-08T03:28:47;17.40;;;9.48;;
23260;SDS011;11799;47.740;-3.390;2023-02-08T03:34:02;16.48;;;9.73;;
23260;SDS011;11799;47.740;-3.390;2023-02-08T03:36:55;17.83;;;9.65;;
23260;SDS011;11799;47.740;-3.390;2023-02-08T03:39:30;16.85;;;9.48;;
23260;SDS011;11799;47.740;-3.390;2023-02-08T03:41:59;15.63;;;9.05;;
23260;SDS011;11799;47.740;-3.390;2023-02-08T03:44:34;15.60;;;9.30;;
23260;SDS011;11799;47.740;-3.390;2023-02-08T03:47:10;16.38;;;9.70;;
23260;SDS011;11799;47.740;-3.390;2023-02-08T03:49:40;16.05;;;9.88;;
23260;SDS011;11799;47.740;-3.390;2023-02-08T03:52:08;20.90;;;9.95;;
23260;SDS011;11799;47.740;-3.390;2023-02-08T03:54:36;17.48;;;9.75;;
23260;SDS011;11799;47.740;-3.390;2023-02-08T03:57:20;18.73;;;11.05;;
23260;SDS011;11799;47.740;-3.390;2023-02-08T03:59:50;15.10;;;9.30;;
23260;SDS011;11799;47.740;-3.390;2023-02-08T04:02:21;14.63;;;9.63;;
23260;SDS011;11799;47.740;-3.390;2023-02-08T04:07:17;15.65;;;9.32;;
23260;SDS011;11799;47.740;-3.390;2023-02-08T04:09:43;16.90;;;10.10;;
23260;SDS011;11799;47.740;-3.390;2023-02-08T04:12:10;18.42;;;9.73;;
23260;SDS011;11799;47.740;-3.390;2023-02-08T04:14:35;19.20;;;9.30;;
23260;SDS011;11799;47.740;-3.390;2023-02-08T04:17:01;17.55;;;9.82;;
23260;SDS011;11799;47.740;-3.390;2023-02-08T04:19:26;17.60;;;9.93;;
23260;SDS011;11799;47.740;-3.390;2023-02-08T04:21:52;17.67;;;9.80;;
23260;SDS011;11799;47.740;-3.390;2023-02-08T04:24:18;18.90;;;9.48;;
23260;SDS011;11799;47.740;-3.390;2023-02-08T04:26:44;15.80;;;9.65;;
23260;SDS011;11799;47.740;-3.390;2023-02-08T04:29:10;17.50;;;9.43;;
23260;SDS011;11799;47.740;-3.390;2023-02-08T04:31:35;18.42;;;10.05;;
23260;SDS011;11799;47.740;-3.390;2023-02-08T04:34:01;17.30;;;10.52;;
23260;SDS011;11799;47.740;-3.390;2023-02-08T04:36:27;19.52;;;11.18;;
23260;SDS011;11799;47.740;-3.390;2023-02-08T04:38:52;16.65;;;9.77;;
23260;SDS011;11799;47.740;-3.390;2023-02-08T04:41:18;20.13;;;10.73;;
23260;SDS011;11799;47.740;-3.390;2023-02-08T04:43:44;16.30;;;9.38;;
23260;SDS011;11799;47.740;-3.390;2023-02-08T04:46:09;19.60;;;10.50;;
23260;SDS011;11799;47.740;-3.390;2023-02-08T04:48:35;17.80;;;9.68;;
23260;SDS011;11799;47.740;-3.390;2023-02-08T04:51:01;16.60;;;10.35;;
23260;SDS011;11799;47.740;-3.390;2023-02-08T04:53:26;16.75;;;10.13;;
23260;SDS011;11799;47.740;-3.390;2023-02-08T04:55:52;17.08;;;9.60;;
23260;SDS011;11799;47.740;-3.390;2023-02-08T04:58:18;17.10;;;10.90;;
23260;SDS011;11799;47.740;-3.390;2023-02-08T05:00:43;16.65;;;9.90;;
23260;SDS011;11799;47.740;-3.390;2023-02-08T05:03:09;17.17;;;9.93;;
23260;SDS011;11799;47.740;-3.390;2023-02-08T05:05:35;17.85;;;11.00;;
23260;SDS011;11799;47.740;-3.390;2023-02-08T05:08:01;18.08;;;10.20;;
23260;SDS011;11799;47.740;-3.390;2023-02-08T05:10:26;14.52;;;9.18;;
23260;SDS011;11799;47.740;-3.390;2023-02-08T05:12:53;18.27;;;10.65;;
23260;SDS011;11799;47.740;-3.390;2023-02-08T05:15:18;15.73;;;10.32;;
23260;SDS011;11799;47.740;-3.390;2023-02-08T05:17:44;17.05;;;10.10;;
23260;SDS011;11799;47.740;-3.390;2023-02-08T05:20:10;16.13;;;10.00;;
23260;SDS011;11799;47.740;-3.390;2023-02-08T05:22:36;17.27;;;10.63;;
23260;SDS011;11799;47.740;-3.390;2023-02-08T05:25:02;17.23;;;10.27;;
23260;SDS011;11799;47.740;-3.390;2023-02-08T05:27:28;18.77;;;11.13;;
23260;SDS011;11799;47.740;-3.390;2023-02-08T05:29:53;16.40;;;10.20;;
23260;SDS011;11799;47.740;-3.390;2023-02-08T05:32:19;17.80;;;10.40;;
23260;SDS011;11799;47.740;-3.390;2023-02-08T05:34:44;18.63;;;10.82;;
23260;SDS011;11799;47.740;-3.390;2023-02-08T05:37:10;18.10;;;10.77;;
23260;SDS011;11799;47.740;-3.390;2023-02-08T05:39:38;21.50;;;10.80;;
23260;SDS011;11799;47.740;-3.390;2023-02-08T05:42:04;21.13;;;11.23;;
23260;SDS011;11799;47.740;-3.390;2023-02-08T05:44:29;18.65;;;10.40;;
23260;SDS011;11799;47.740;-3.390;2023-02-08T05:46:55;17.30;;;10.35;;
23260;SDS011;11799;47.740;-3.390;2023-02-08T05:49:21;18.15;;;10.35;;
23260;SDS011;11799;47.740;-3.390;2023-02-08T05:51:46;19.13;;;10.48;;
23260;SDS011;11799;47.740;-3.390;2023-02-08T05:54:14;18.95;;;10.05;;
23260;SDS011;11799;47.740;-3.390;2023-02-08T05:56:41;17.65;;;10.30;;
23260;SDS011;11799;47.740;-3.390;2023-02-08T05:59:07;16.75;;;10.13;;
23260;SDS011;11799;47.740;-3.390;2023-02-08T06:01:34;19.30;;;10.13;;
23260;SDS011;11799;47.740;-3.390;2023-02-08T06:03:59;16.33;;;10.32;;
23260;SDS011;11799;47.740;-3.390;2023-02-08T06:06:25;18.70;;;10.30;;
23260;SDS011;11799;47.740;-3.390;2023-02-08T06:08:51;18.67;;;10.98;;
23260;SDS011;11799;47.740;-3.390;2023-02-08T06:11:16;17.60;;;10.52;;
23260;SDS011;11799;47.740;-3.390;2023-02-08T06:13:43;17.35;;;10.63;;
23260;SDS011;11799;47.740;-3.390;2023-02-08T06:16:10;18.25;;;10.63;;
23260;SDS011;11799;47.740;-3.390;2023-02-08T06:18:36;18.85;;;11.23;;
23260;SDS011;11799;47.740;-3.390;2023-02-08T06:21:02;18.55;;;10.55;;
23260;SDS011;11799;47.740;-3.390;2023-02-08T06:23:28;18.90;;;10.68;;
23260;SDS011;11799;47.740;-3.390;2023-02-08T06:25:54;18.48;;;9.93;;
23260;SDS011;11799;47.740;-3.390;2023-02-08T06:28:19;18.55;;;11.00;;
23260;SDS011;11799;47.740;-3.390;2023-02-08T06:30:47;19.35;;;11.07;;
23260;SDS011;11799;47.740;-3.390;2023-02-08T06:33:13;20.83;;;10.18;;
23260;SDS011;11799;47.740;-3.390;2023-02-08T06:35:39;20.27;;;11.25;;
23260;SDS011;11799;47.740;-3.390;2023-02-08T06:38:04;22.15;;;11.90;;
23260;SDS011;11799;47.740;-3.390;2023-02-08T06:40:30;24.60;;;12.68;;
23260;SDS011;11799;47.740;-3.390;2023-02-08T06:42:55;22.20;;;11.70;;
23260;SDS011;11799;47.740;-3.390;2023-02-08T06:45:21;20.75;;;12.10;;
23260;SDS011;11799;47.740;-3.390;2023-02-08T06:47:46;22.38;;;12.05;;
23260;SDS011;11799;47.740;-3.390;2023-02-08T06:50:12;21.42;;;11.75;;
23260;SDS011;11799;47.740;-3.390;2023-02-08T06:52:39;18.65;;;11.25;;
23260;SDS011;11799;47.740;-3.390;2023-02-08T06:55:05;20.05;;;12.07;;
23260;SDS011;11799;47.740;-3.390;2023-02-08T06:57:30;19.25;;;10.98;;
23260;SDS011;11799;47.740;-3.390;2023-02-08T06:59:56;21.20;;;11.90;;
23260;SDS011;11799;47.740;-3.390;2023-02-08T07:02:21;19.42;;;11.20;;
23260;SDS011;11799;47.740;-3.390;2023-02-08T07:04:47;21.42;;;11.23;;
23260;SDS011;11799;47.740;-3.390;2023-02-08T07:07:14;17.60;;;10.63;;
23260;SDS011;11799;47.740;-3.390;2023-02-08T07:09:40;21.23;;;12.75;;
23260;SDS011;11799;47.740;-3.390;2023-02-08T07:12:06;20.30;;;11.52;;
23260;SDS011;11799;47.740;-3.390;2023-02-08T07:14:32;21.02;;;11.38;;
23260;SDS011;11799;47.740;-3.390;2023-02-08T07:17:00;18.83;;;11.35;;
23260;SDS011;11799;47.740;-3.390;2023-02-08T07:19:26;17.08;;;10.88;;
23260;SDS011;11799;47.740;-3.390;2023-02-08T07:21:52;18.30;;;11.63;;
23260;SDS011;11799;47.740;-3.390;2023-02-08T07:24:17;20.40;;;11.63;;
23260;SDS011;11799;47.740;-3.390;2023-02-08T07:26:43;17.80;;;10.43;;
23260;SDS011;11799;47.740;-3.390;2023-02-08T07:29:08;19.05;;;11.68;;
23260;SDS011;11799;47.740;-3.390;2023-02-08T07:31:34;18.05;;;11.40;;
23260;SDS011;11799;47.740;-3.390;2023-02-08T07:34:00;20.95;;;11.63;;
23260;SDS011;11799;47.740;-3.390;2023-02-08T07:36:25;23.00;;;11.65;;
23260;SDS011;11799;47.740;-3.390;2023-02-08T07:38:51;18.38;;;11.38;;
23260;SDS011;11799;47.740;-3.390;2023-02-08T07:41:16;24.27;;;12.52;;
23260;SDS011;11799;47.740;-3.390;2023-02-08T07:43:42;18.00;;;10.98;;
23260;SDS011;11799;47.740;-3.390;2023-02-08T07:46:12;20.00;;;11.38;;
23260;SDS011;11799;47.740;-3.390;2023-02-08T07:48:40;20.85;;;11.93;;
23260;SDS011;11799;47.740;-3.390;2023-02-08T07:51:06;22.48;;;11.57;;
23260;SDS011;11799;47.740;-3.390;2023-02-08T07:53:33;18.70;;;10.98;;
23260;SDS011;11799;47.740;-3.390;2023-02-08T07:55:59;19.33;;;11.13;;
23260;SDS011;11799;47.740;-3.390;2023-02-08T07:58:24;20.98;;;11.32;;
23260;SDS011;11799;47.740;-3.390;2023-02-08T08:00:50;17.90;;;10.98;;
23260;SDS011;11799;47.740;-3.390;2023-02-08T08:03:16;19.67;;;11.45;;
23260;SDS011;11799;47.740;-3.390;2023-02-08T08:05:42;19.48;;;11.02;;
23260;SDS011;11799;47.740;-3.390;2023-02-08T08:08:08;18.45;;;10.68;;
23260;SDS011;11799;47.740;-3.390;2023-02-08T08:10:35;19.90;;;11.30;;
23260;SDS011;11799;47.740;-3.390;2023-02-08T08:13:01;20.88;;;11.55;;
23260;SDS011;11799;47.740;-3.390;2023-02-08T08:15:26;20.92;;;11.98;;
23260;SDS011;11799;47.740;-3.390;2023-02-08T08:17:53;21.23;;;12.07;;
23260;SDS011;11799;47.740;-3.390;2023-02-08T08:20:18;22.02;;;11.00;;
23260;SDS011;11799;47.740;-3.390;2023-02-08T08:22:44;17.08;;;11.45;;
23260;SDS011;11799;47.740;-3.390;2023-02-08T08:25:10;19.70;;;11.65;;
23260;SDS011;11799;47.740;-3.390;2023-02-08T08:27:36;18.73;;;11.18;;
23260;SDS011;11799;47.740;-3.390;2023-02-08T08:30:03;19.15;;;10.85;;
23260;SDS011;11799;47.740;-3.390;2023-02-08T08:32:30;26.85;;;11.80;;
23260;SDS011;11799;47.740;-3.390;2023-02-08T08:34:56;22.83;;;12.50;;
23260;SDS011;11799;47.740;-3.390;2023-02-08T08:37:21;25.88;;;12.30;;
23260;SDS011;11799;47.740;-3.390;2023-02-08T08:39:47;19.95;;;11.15;;
23260;SDS011;11799;47.740;-3.390;2023-02-08T08:42:13;22.60;;;11.25;;
23260;SDS011;11799;47.740;-3.390;2023-02-08T08:44:39;19.35;;;11.13;;
23260;SDS011;11799;47.740;-3.390;2023-02-08T08:47:04;20.10;;;11.43;;
23260;SDS011;11799;47.740;-3.390;2023-02-08T08:49:30;21.33;;;11.00;;
23260;SDS011;11799;47.740;-3.390;2023-02-08T08:51:55;21.33;;;11.32;;
23260;SDS011;11799;47.740;-3.390;2023-02-08T08:54:22;21.85;;;12.20;;
23260;SDS011;11799;47.740;-3.390;2023-02-08T08:56:47;17.08;;;11.68;;
23260;SDS011;11799;47.740;-3.390;2023-02-08T08:59:13;18.88;;;11.50;;
23260;SDS011;11799;47.740;-3.390;2023-02-08T09:01:39;19.17;;;12.23;;
23260;SDS011;11799;47.740;-3.390;2023-02-08T09:04:07;19.63;;;11.75;;
23260;SDS011;11799;47.740;-3.390;2023-02-08T09:06:33;17.23;;;11.43;;
23260;SDS011;11799;47.740;-3.390;2023-02-08T09:08:59;21.60;;;11.73;;
23260;SDS011;11799;47.740;-3.390;2023-02-08T09:11:25;20.05;;;12.20;;
23260;SDS011;11799;47.740;-3.390;2023-02-08T09:13:52;22.70;;;12.32;;
23260;SDS011;11799;47.740;-3.390;2023-02-08T09:16:20;20.63;;;11.98;;
23260;SDS011;11799;47.740;-3.390;2023-02-08T09:18:47;18.85;;;12.25;;
23260;SDS011;11799;47.740;-3.390;2023-02-08T09:21:14;21.02;;;12.05;;
23260;SDS011;11799;47.740;-3.390;2023-02-08T09:23:41;23.58;;;12.80;;
23260;SDS011;11799;47.740;-3.390;2023-02-08T09:26:08;20.13;;;11.40;;
23260;SDS011;11799;47.740;-3.390;2023-02-08T09:28:35;19.55;;;11.95;;
23260;SDS011;11799;47.740;-3.390;2023-02-08T09:31:08;18.42;;;11.27;;
23260;SDS011;11799;47.740;-3.390;2023-02-08T09:33:34;20.65;;;11.90;;
23260;SDS011;11799;47.740;-3.390;2023-02-08T09:36:00;19.15;;;11.63;;
23260;SDS011;11799;47.740;-3.390;2023-02-08T09:38:26;20.38;;;12.15;;
23260;SDS011;11799;47.740;-3.390;2023-02-08T09:46:44;22.42;;;11.18;;
23260;SDS011;11799;47.740;-3.390;2023-02-08T09:49:43;17.73;;;12.07;;
23260;SDS011;11799;47.740;-3.390;2023-02-08T09:52:20;19.98;;;12.65;;
23260;SDS011;11799;47.740;-3.390;2023-02-08T09:54:57;19.25;;;11.75;;
23260;SDS011;11799;47.740;-3.390;2023-02-08T09:57:28;19.10;;;11.35;;
23260;SDS011;11799;47.740;-3.390;2023-02-08T09:59:59;17.50;;;11.52;;
23260;SDS011;11799;47.740;-3.390;2023-02-08T10:02:31;16.20;;;11.32;;
23260;SDS011;11799;47.740;-3.390;2023-02-08T10:04:59;18.88;;;11.60;;
23260;SDS011;11799;47.740;-3.390;2023-02-08T10:07:28;18.27;;;10.93;;
23260;SDS011;11799;47.740;-3.390;2023-02-08T10:09:56;17.90;;;11.80;;
23260;SDS011;11799;47.740;-3.390;2023-02-08T10:12:28;18.63;;;11.37;;
23260;SDS011;11799;47.740;-3.390;2023-02-08T10:37:00;16.15;;;10.90;;
23260;SDS011;11799;47.740;-3.390;2023-02-08T10:39:36;21.17;;;10.13;;
23260;SDS011;11799;47.740;-3.390;2023-02-08T10:42:05;16.20;;;11.55;;
23260;SDS011;11799;47.740;-3.390;2023-02-08T10:50:06;15.85;;;11.00;;
23260;SDS011;11799;47.740;-3.390;2023-02-08T10:52:43;17.52;;;11.40;;
23260;SDS011;11799;47.740;-3.390;2023-02-08T10:55:12;18.27;;;11.55;;
23260;SDS011;11799;47.740;-3.390;2023-02-08T10:57:39;17.90;;;10.90;;
23260;SDS011;11799;47.740;-3.390;2023-02-08T11:00:38;14.18;;;9.68;;
23260;SDS011;11799;47.740;-3.390;2023-02-08T11:05:47;16.05;;;9.55;;
23260;SDS011;11799;47.740;-3.390;2023-02-08T11:08:14;19.33;;;10.70;;
23260;SDS011;11799;47.740;-3.390;2023-02-08T11:11:03;17.52;;;11.57;;
23260;SDS011;11799;47.740;-3.390;2023-02-08T11:13:35;18.33;;;9.98;;
23260;SDS011;11799;47.740;-3.390;2023-02-08T11:16:04;17.90;;;11.25;;
23260;SDS011;11799;47.740;-3.390;2023-02-08T11:18:33;17.65;;;11.38;;
23260;SDS011;11799;47.740;-3.390;2023-02-08T11:21:05;16.90;;;11.00;;
23260;SDS011;11799;47.740;-3.390;2023-02-08T11:23:53;16.85;;;11.60;;
23260;SDS011;11799;47.740;-3.390;2023-02-08T11:26:30;15.95;;;10.82;;
23260;SDS011;11799;47.740;-3.390;2023-02-08T11:29:02;14.80;;;10.32;;
23260;SDS011;11799;47.740;-3.390;2023-02-08T11:31:39;16.65;;;11.23;;
23260;SDS011;11799;47.740;-3.390;2023-02-08T11:34:25;16.10;;;10.55;;
23260;SDS011;11799;47.740;-3.390;2023-02-08T11:39:24;16.35;;;10.20;;
23260;SDS011;11799;47.740;-3.390;2023-02-08T11:41:57;16.40;;;10.40;;
23260;SDS011;11799;47.740;-3.390;2023-02-08T11:44:30;17.75;;;11.93;;
23260;SDS011;11799;47.740;-3.390;2023-02-08T11:47:02;16.02;;;11.30;;
23260;SDS011;11799;47.740;-3.390;2023-02-08T11:49:51;21.20;;;10.82;;
23260;SDS011;11799;47.740;-3.390;2023-02-08T11:52:18;16.08;;;10.95;;
23260;SDS011;11799;47.740;-3.390;2023-02-08T11:54:46;15.38;;;11.18;;
23260;SDS011;11799;47.740;-3.390;2023-02-08T11:57:16;15.20;;;9.65;;
23260;SDS011;11799;47.740;-3.390;2023-02-08T11:59:43;14.00;;;9.82;;
23260;SDS011;11799;47.740;-3.390;2023-02-08T12:05:08;16.30;;;9.23;;
23260;SDS011;11799;47.740;-3.390;2023-02-08T12:15:39;13.52;;;8.82;;
23260;SDS011;11799;47.740;-3.390;2023-02-08T12:23:45;11.45;;;8.63;;
23260;SDS011;11799;47.740;-3.390;2023-02-08T12:32:14;11.73;;;8.25;;
23260;SDS011;11799;47.740;-3.390;2023-02-08T12:35:06;11.15;;;7.25;;
23260;SDS011;11799;47.740;-3.390;2023-02-08T12:38:01;10.85;;;6.93;;
23260;SDS011;11799;47.740;-3.390;2023-02-08T12:43:49;10.35;;;6.70;;
23260;SDS011;11799;47.740;-3.390;2023-02-08T12:54:34;11.18;;;7.32;;
23260;SDS011;11799;47.740;-3.390;2023-02-08T12:57:09;11.80;;;7.45;;
23260;SDS011;11799;47.740;-3.390;2023-02-08T12:59:39;11.02;;;7.65;;
23260;SDS011;11799;47.740;-3.390;2023-02-08T13:02:14;10.70;;;7.78;;
23260;SDS011;11799;47.740;-3.390;2023-02-08T13:04:48;13.73;;;6.90;;
23260;SDS011;11799;47.740;-3.390;2023-02-08T13:07:23;11.43;;;6.78;;
23260;SDS011;11799;47.740;-3.390;2023-02-08T13:12:28;9.07;;;6.70;;
23260;SDS011;11799;47.740;-3.390;2023-02-08T13:17:53;9.93;;;7.00;;
23260;SDS011;11799;47.740;-3.390;2023-02-08T13:22:55;11.02;;;6.85;;
23260;SDS011;11799;47.740;-3.390;2023-02-08T13:25:29;9.13;;;6.30;;
23260;SDS011;11799;47.740;-3.390;2023-02-08T13:27:59;10.27;;;6.78;;
23260;SDS011;11799;47.740;-3.390;2023-02-08T13:30:28;8.55;;;6.40;;
23260;SDS011;11799;47.740;-3.390;2023-02-08T13:32:56;7.97;;;6.25;;
23260;SDS011;11799;47.740;-3.390;2023-02-08T13:35:24;8.77;;;5.88;;
23260;SDS011;11799;47.740;-3.390;2023-02-08T13:37:55;9.68;;;5.95;;
23260;SDS011;11799;47.740;-3.390;2023-02-08T13:40:27;8.20;;;6.28;;
23260;SDS011;11799;47.740;-3.390;2023-02-08T13:42:56;7.45;;;5.60;;
23260;SDS011;11799;47.740;-3.390;2023-02-08T13:45:27;8.93;;;6.13;;
23260;SDS011;11799;47.740;-3.390;2023-02-08T13:47:58;6.75;;;5.65;;
23260;SDS011;11799;47.740;-3.390;2023-02-08T13:50:39;7.45;;;5.57;;
23260;SDS011;11799;47.740;-3.390;2023-02-08T13:53:05;6.75;;;5.50;;
23260;SDS011;11799;47.740;-3.390;2023-02-08T13:58:00;9.10;;;5.90;;
23260;SDS011;11799;47.740;-3.390;2023-02-08T14:00:34;7.75;;;5.35;;
23260;SDS011;11799;47.740;-3.390;2023-02-08T14:11:13;9.48;;;6.03;;
23260;SDS011;11799;47.740;-3.390;2023-02-08T14:13:49;6.28;;;4.65;;
23260;SDS011;11799;47.740;-3.390;2023-02-08T14:16:23;6.68;;;5.40;;
23260;SDS011;11799;47.740;-3.390;2023-02-08T14:18:59;6.07;;;4.80;;
23260;SDS011;11799;47.740;-3.390;2023-02-08T14:21:38;7.43;;;5.78;;
23260;SDS011;11799;47.740;-3.390;2023-02-08T14:24:21;6.50;;;5.30;;
23260;SDS011;11799;47.740;-3.390;2023-02-08T14:27:04;6.53;;;4.85;;
23260;SDS011;11799;47.740;-3.390;2023-02-08T14:29:53;7.55;;;5.50;;
23260;SDS011;11799;47.740;-3.390;2023-02-08T14:32:34;6.85;;;5.20;;
23260;SDS011;11799;47.740;-3.390;2023-02-08T14:37:38;8.75;;;5.38;;
23260;SDS011;11799;47.740;-3.390;2023-02-08T14:45:50;6.20;;;4.47;;
23260;SDS011;11799;47.740;-3.390;2023-02-08T14:50:50;6.28;;;4.75;;
23260;SDS011;11799;47.740;-3.390;2023-02-08T14:56:13;6.35;;;4.80;;
23260;SDS011;11799;47.740;-3.390;2023-02-08T14:58:43;7.88;;;5.20;;
23260;SDS011;11799;47.740;-3.390;2023-02-08T15:01:15;6.93;;;5.30;;
23260;SDS011;11799;47.740;-3.390;2023-02-08T15:03:49;9.48;;;6.22;;
23260;SDS011;11799;47.740;-3.390;2023-02-08T15:14:56;7.28;;;4.80;;
23260;SDS011;11799;47.740;-3.390;2023-02-08T15:17:28;6.07;;;4.35;;
23260;SDS011;11799;47.740;-3.390;2023-02-08T15:19:58;6.65;;;4.72;;
23260;SDS011;11799;47.740;-3.390;2023-02-08T15:22:36;5.80;;;4.63;;
23260;SDS011;11799;47.740;-3.390;2023-02-08T15:25:22;6.75;;;4.78;;
23260;SDS011;11799;47.740;-3.390;2023-02-08T15:27:50;7.47;;;4.88;;
23260;SDS011;11799;47.740;-3.390;2023-02-08T15:30:37;7.43;;;4.55;;
23260;SDS011;11799;47.740;-3.390;2023-02-08T15:33:21;6.30;;;5.03;;
23260;SDS011;11799;47.740;-3.390;2023-02-08T15:35:57;7.00;;;5.38;;
23260;SDS011;11799;47.740;-3.390;2023-02-08T15:38:29;7.88;;;4.40;;
23260;SDS011;11799;47.740;-3.390;2023-02-08T15:43:35;8.37;;;5.30;;
23260;SDS011;11799;47.740;-3.390;2023-02-08T15:46:03;6.20;;;5.20;;
23260;SDS011;11799;47.740;-3.390;2023-02-08T15:48:30;6.53;;;4.80;;
23260;SDS011;11799;47.740;-3.390;2023-02-08T15:50:57;6.43;;;4.90;;
23260;SDS011;11799;47.740;-3.390;2023-02-08T15:53:25;7.30;;;4.75;;
23260;SDS011;11799;47.740;-3.390;2023-02-08T15:55:56;7.18;;;4.88;;
23260;SDS011;11799;47.740;-3.390;2023-02-08T15:58:39;15.48;;;5.30;;
23260;SDS011;11799;47.740;-3.390;2023-02-08T16:01:15;10.25;;;5.40;;
23260;SDS011;11799;47.740;-3.390;2023-02-08T16:03:50;7.45;;;5.07;;
23260;SDS011;11799;47.740;-3.390;2023-02-08T16:06:21;6.65;;;5.18;;
23260;SDS011;11799;47.740;-3.390;2023-02-08T16:08:50;6.82;;;5.22;;
23260;SDS011;11799;47.740;-3.390;2023-02-08T16:11:22;8.43;;;5.03;;
23260;SDS011;11799;47.740;-3.390;2023-02-08T16:13:51;6.35;;;4.78;;
23260;SDS011;11799;47.740;-3.390;2023-02-08T16:16:25;8.02;;;5.70;;
23260;SDS011;11799;47.740;-3.390;2023-02-08T16:19:04;6.90;;;5.13;;
23260;SDS011;11799;47.740;-3.390;2023-02-08T16:21:36;9.07;;;5.68;;
23260;SDS011;11799;47.740;-3.390;2023-02-08T16:26:41;7.00;;;5.38;;
23260;SDS011;11799;47.740;-3.390;2023-02-08T16:29:16;7.13;;;5.00;;
23260;SDS011;11799;47.740;-3.390;2023-02-08T16:31:43;7.57;;;5.20;;
23260;SDS011;11799;47.740;-3.390;2023-02-08T16:34:14;8.70;;;5.28;;
23260;SDS011;11799;47.740;-3.390;2023-02-08T16:36:43;9.75;;;6.00;;
23260;SDS011;11799;47.740;-3.390;2023-02-08T16:44:25;10.43;;;5.53;;
23260;SDS011;11799;47.740;-3.390;2023-02-08T16:46:53;9.50;;;5.88;;
23260;SDS011;11799;47.740;-3.390;2023-02-08T16:49:18;9.15;;;6.10;;
23260;SDS011;11799;47.740;-3.390;2023-02-08T16:51:44;8.52;;;5.63;;
23260;SDS011;11799;47.740;-3.390;2023-02-08T16:54:14;8.75;;;5.70;;
23260;SDS011;11799;47.740;-3.390;2023-02-08T16:56:42;7.28;;;5.20;;
23260;SDS011;11799;47.740;-3.390;2023-02-08T16:59:10;6.45;;;4.50;;
23260;SDS011;11799;47.740;-3.390;2023-02-08T17:01:37;9.25;;;6.90;;
23260;SDS011;11799;47.740;-3.390;2023-02-08T17:04:04;9.75;;;7.35;;
23260;SDS011;11799;47.740;-3.390;2023-02-08T17:06:31;12.32;;;7.90;;
23260;SDS011;11799;47.740;-3.390;2023-02-08T17:08:59;9.57;;;6.78;;
23260;SDS011;11799;47.740;-3.390;2023-02-08T17:11:26;7.38;;;5.15;;
23260;SDS011;11799;47.740;-3.390;2023-02-08T17:13:52;11.25;;;7.45;;
23260;SDS011;11799;47.740;-3.390;2023-02-08T17:16:19;15.15;;;8.80;;
23260;SDS011;11799;47.740;-3.390;2023-02-08T17:18:47;14.75;;;9.65;;